createdAt,value
2022-08-17T00:02:34.434Z,3.65
2022-08-17T00:07:49.733Z,3.60
2022-08-17T00:12:58.456Z,3.90
2022-08-17T00:19:02.108Z,4.15
2022-08-17T00:23:35.573Z,3.47
2022-08-17T00:33:48.001Z,4.00
2022-08-17T00:38:58.431Z,3.88
2022-08-17T00:44:10.889Z,3.90
2022-08-17T00:49:28.547Z,3.85
2022-08-17T00:54:46.274Z,3.72
2022-08-17T01:00:02.978Z,3.92
2022-08-17T01:05:14.642Z,3.83
2022-08-17T01:10:59.610Z,3.83
2022-08-17T01:16:38.909Z,3.80
2022-08-17T01:21:45.772Z,3.75
2022-08-17T01:26:52.355Z,4.38
2022-08-17T01:38:18.338Z,3.88
2022-08-17T01:44:39.180Z,3.78
2022-08-17T01:56:45.170Z,3.92
2022-08-17T02:19:10.720Z,4.50
2022-08-17T02:43:07.856Z,4.55
2022-08-17T02:55:14.683Z,4.32
2022-08-17T03:06:57.612Z,3.92
2022-08-17T03:12:59.212Z,4.60
2022-08-17T03:19:01.388Z,4.13
2022-08-17T03:24:54.734Z,4.50
2022-08-17T03:31:05.795Z,5.10
2022-08-17T03:36:46.111Z,5.32
2022-08-17T03:43:22.984Z,5.63
2022-08-17T03:55:58.867Z,4.80
2022-08-17T04:06:32.385Z,5.20
2022-08-17T04:07:37.019Z,4.47
2022-08-17T04:12:51.871Z,4.40
2022-08-17T04:17:57.200Z,5.68
2022-08-17T04:23:05.938Z,5.57
2022-08-17T04:28:15.608Z,5.53
2022-08-17T04:33:25.467Z,5.18
2022-08-17T04:38:32.146Z,5.43
2022-08-17T04:43:39.822Z,5.72
2022-08-17T04:48:47.717Z,5.32
2022-08-17T04:53:57.195Z,5.28
2022-08-17T04:59:06.080Z,5.40
2022-08-17T05:04:21.127Z,4.88
2022-08-17T05:09:37.740Z,5.30
2022-08-17T05:14:41.212Z,5.18
2022-08-17T05:19:47.578Z,5.25
2022-08-17T05:24:53.770Z,5.13
2022-08-17T05:29:58.830Z,4.95
2022-08-17T05:35:06.184Z,5.70
2022-08-17T05:40:10.767Z,5.43
2022-08-17T05:45:16.633Z,5.60
2022-08-17T05:50:42.617Z,4.65
2022-08-17T05:55:59.906Z,6.10
2022-08-17T06:01:36.337Z,5.18
2022-08-17T06:07:07.795Z,4.95
2022-08-17T06:12:40.218Z,4.95
2022-08-17T06:17:44.295Z,4.47
2022-08-17T06:22:52.609Z,4.20
2022-08-17T06:28:05.496Z,3.90
2022-08-17T06:33:22.189Z,3.78
2022-08-17T06:38:50.843Z,4.10
2022-08-17T06:44:43.265Z,3.53
2022-08-17T06:50:03.902Z,3.25
2022-08-17T06:55:17.782Z,3.63
2022-08-17T07:00:30.100Z,3.60
2022-08-17T07:05:47.609Z,3.72
2022-08-17T07:10:56.682Z,3.38
2022-08-17T07:16:24.684Z,3.33
2022-08-17T07:21:41.659Z,2.85
2022-08-17T07:26:44.883Z,2.63
2022-08-17T07:31:48.260Z,3.25
2022-08-17T07:37:05.948Z,3.20
2022-08-17T07:42:11.417Z,3.03
2022-08-17T07:47:36.236Z,2.97
2022-08-17T07:52:50.692Z,2.90
2022-08-17T07:57:58.146Z,2.90
2022-08-17T08:03:12.599Z,2.63
2022-08-17T08:08:43.029Z,2.60
2022-08-17T08:13:46.763Z,2.70
2022-08-17T08:18:56.066Z,2.55
2022-08-17T08:24:44.191Z,2.35
2022-08-17T08:29:54.394Z,2.33
2022-08-17T08:35:05.426Z,2.30
2022-08-17T08:40:57.076Z,2.40
2022-08-17T08:46:19.595Z,2.35
2022-08-17T08:51:51.663Z,2.80
2022-08-17T08:57:45.930Z,2.60
2022-08-17T09:03:04.428Z,2.33
2022-08-17T09:08:29.578Z,2.40
2022-08-17T09:14:21.518Z,2.30
2022-08-17T09:20:05.778Z,2.10
2022-08-17T09:31:49.627Z,2.22
2022-08-17T09:38:07.486Z,1.90
2022-08-17T09:44:22.723Z,2.28
2022-08-17T09:56:26.812Z,2.40
2022-08-17T10:08:42.700Z,1.92
2022-08-17T10:14:38.109Z,1.98
2022-08-17T10:20:20.030Z,2.03
2022-08-17T10:25:54.581Z,1.90
2022-08-17T10:31:36.546Z,1.83
2022-08-17T10:37:26.252Z,1.90
2022-08-17T10:49:48.657Z,2.42
2022-08-17T10:55:35.634Z,2.53
2022-08-17T11:01:31.744Z,1.90
2022-08-17T11:06:59.607Z,2.40
2022-08-17T11:31:48.535Z,2.38
2022-08-17T11:44:37.664Z,2.58
2022-08-17T11:57:13.801Z,2.53
2022-08-17T12:15:13.927Z,2.30
2022-08-17T12:20:47.319Z,2.28
2022-08-17T12:26:20.955Z,2.28
2022-08-17T12:37:31.144Z,2.28
2022-08-17T12:55:55.625Z,2.40
2022-08-17T13:01:57.729Z,2.40
2022-08-17T13:07:54.406Z,2.38
2022-08-17T13:13:46.303Z,2.47
2022-08-17T13:19:43.881Z,2.40
2022-08-17T13:25:29.169Z,2.83
2022-08-17T13:32:03.849Z,2.58
2022-08-17T13:44:23.877Z,2.38
2022-08-17T13:56:45.878Z,2.47
2022-08-17T14:02:05.469Z,2.60
2022-08-17T14:07:14.918Z,2.45
2022-08-17T14:12:31.199Z,2.67
2022-08-17T14:17:57.989Z,2.53
2022-08-17T14:23:25.420Z,2.47
2022-08-17T14:29:15.000Z,2.30
2022-08-17T14:34:49.706Z,2.50
2022-08-17T14:58:46.447Z,2.40
2022-08-17T15:10:03.814Z,2.23
2022-08-17T15:27:32.398Z,2.10
2022-08-17T15:33:20.587Z,2.28
2022-08-17T15:38:44.421Z,2.33
2022-08-17T15:43:52.077Z,2.00
2022-08-17T15:49:15.056Z,2.45
2022-08-17T15:55:09.820Z,2.13
2022-08-17T16:00:26.366Z,2.50
2022-08-17T16:05:52.079Z,2.22
2022-08-17T16:12:19.548Z,2.08
2022-08-17T16:24:15.581Z,2.13
2022-08-17T16:35:46.037Z,2.17
2022-08-17T16:41:41.537Z,2.42
2022-08-17T16:52:44.584Z,2.20
2022-08-17T17:04:39.304Z,2.10
2022-08-17T17:15:58.095Z,2.38
2022-08-17T17:27:51.280Z,3.00
2022-08-17T17:33:07.997Z,2.83
2022-08-17T17:38:22.441Z,2.72
2022-08-17T17:43:38.811Z,2.72
2022-08-17T17:48:43.782Z,3.00
2022-08-17T17:54:02.589Z,4.50
2022-08-17T17:59:34.510Z,3.65
2022-08-17T18:04:53.677Z,4.45
2022-08-17T18:15:52.046Z,2.70
2022-08-17T18:21:16.229Z,2.75
2022-08-17T18:26:38.116Z,2.83
2022-08-17T18:31:45.479Z,2.40
2022-08-17T18:36:50.001Z,2.80
2022-08-17T18:42:03.708Z,2.78
2022-08-17T18:47:10.134Z,2.50
2022-08-17T18:52:24.586Z,2.63
2022-08-17T18:57:36.046Z,3.13
2022-08-17T19:03:13.288Z,2.72
2022-08-17T19:08:31.278Z,2.80
2022-08-17T19:13:53.666Z,2.58
2022-08-17T19:19:05.923Z,2.80
2022-08-17T19:24:22.322Z,2.72
2022-08-17T19:29:34.371Z,2.97
2022-08-17T19:34:40.498Z,2.80
2022-08-17T19:40:03.325Z,3.10
2022-08-17T19:45:28.525Z,3.45
2022-08-17T19:50:39.256Z,5.75
2022-08-17T19:56:16.889Z,6.43
2022-08-17T20:01:46.841Z,3.75
2022-08-17T20:06:55.079Z,2.73
2022-08-17T20:12:06.903Z,2.63
2022-08-17T20:17:24.492Z,2.70
2022-08-17T20:22:52.435Z,2.58
2022-08-17T20:28:06.240Z,2.72
2022-08-17T20:33:34.794Z,2.78
2022-08-17T20:38:49.593Z,2.95
2022-08-17T20:43:56.552Z,3.00
2022-08-17T20:49:44.614Z,2.75
2022-08-17T20:55:00.692Z,2.83
2022-08-17T21:00:32.114Z,3.10
2022-08-17T21:12:51.639Z,3.20
2022-08-17T21:19:10.718Z,2.85
2022-08-17T21:31:46.938Z,2.92
2022-08-17T21:37:45.528Z,2.63
2022-08-17T21:43:35.854Z,2.95
2022-08-17T21:49:14.415Z,3.10
2022-08-17T21:55:12.204Z,2.58
2022-08-17T22:06:56.904Z,3.28
2022-08-17T22:30:04.679Z,4.38
2022-08-17T22:35:42.423Z,3.88
2022-08-17T22:41:32.150Z,5.10
2022-08-17T22:47:56.831Z,4.10
2022-08-17T22:54:05.386Z,4.35
2022-08-17T23:00:34.256Z,4.82
2022-08-17T23:06:17.876Z,5.57
2022-08-17T23:12:17.288Z,5.97
2022-08-17T23:18:17.342Z,5.85
2022-08-17T23:23:34.800Z,7.20
2022-08-17T23:35:19.068Z,5.40
2022-08-17T23:41:32.419Z,6.13
2022-08-17T23:47:19.118Z,7.53
2022-08-17T23:53:14.863Z,5.70
2022-08-17T23:59:04.578Z,6.40
